Terminal Aerodrome Forecast
Issued by NWS Boston, MA

Home | Current Version | Previous Version | Text Only | Print | Product List | Glossary On
Versions: 1 2 3 4 5 6 7 8 9 10 11 12 13 14 15 16 17 18 19 20 21 22 23 24 25 26 27 28 29 30 31 32 33 34
000
FTUS41 KBOX 232320
TAFORH
TAF
KORH 232320Z 2400/2424 12009KT P6SM BKN100
     FM240100 18006KT P6SM VCSH OVC025
     FM240400 19006KT 6SM -SHRA OVC035
     FM240600 19006KT P6SM VCSH OVC025 WS020/23035KT
     FM240700 21006KT P6SM BKN050
     FM241100 27007KT P6SM SCT025
     FM241300 28010G19KT P6SM SCT040=

USA.gov is the U.S. government's official web portal to all federal, state and local government web resources and services.